sensor_id;sensor_type;location;lat;lon;timestamp;pressure;altitude;pressure_sealevel;temperature;humidity
65227;BME280;51805;49.012;12.104;2023-08-24T00:00:17;98057.75;;;28.08;43.63
65227;BME280;51805;49.012;12.104;2023-08-24T00:02:42;98046.78;;;27.99;43.85
65227;BME280;51805;49.012;12.104;2023-08-24T00:05:08;98051.03;;;28.14;43.47
65227;BME280;51805;49.012;12.104;2023-08-24T00:07:33;98052.34;;;28.16;43.80
65227;BME280;51805;49.012;12.104;2023-08-24T00:09:58;98057.19;;;28.19;43.61
65227;BME280;51805;49.012;12.104;2023-08-24T00:12:24;98054.13;;;28.21;43.87
65227;BME280;51805;49.012;12.104;2023-08-24T00:14:49;98041.66;;;28.06;43.85
65227;BME280;51805;49.012;12.104;2023-08-24T00:17:14;98039.69;;;27.98;43.96
65227;BME280;51805;49.012;12.104;2023-08-24T00:19:40;98041.13;;;27.73;44.76
65227;BME280;51805;49.012;12.104;2023-08-24T00:22:05;98042.53;;;27.93;44.53
65227;BME280;51805;49.012;12.104;2023-08-24T00:24:31;98038.13;;;27.84;44.52
65227;BME280;51805;49.012;12.104;2023-08-24T00:26:56;98044.91;;;27.64;45.03
65227;BME280;51805;49.012;12.104;2023-08-24T00:29:21;98034.84;;;27.73;44.78
65227;BME280;51805;49.012;12.104;2023-08-24T00:31:46;98042.66;;;27.44;45.57
65227;BME280;51805;49.012;12.104;2023-08-24T00:34:12;98044.16;;;27.72;44.90
65227;BME280;51805;49.012;12.104;2023-08-24T00:36:37;98039.25;;;27.38;45.75
65227;BME280;51805;49.012;12.104;2023-08-24T00:39:02;98033.78;;;27.03;46.69
65227;BME280;51805;49.012;12.104;2023-08-24T00:41:28;98039.78;;;27.27;45.89
65227;BME280;51805;49.012;12.104;2023-08-24T00:43:53;98031.09;;;27.25;46.21
65227;BME280;51805;49.012;12.104;2023-08-24T00:46:18;98037.44;;;27.34;46.00
65227;BME280;51805;49.012;12.104;2023-08-24T00:48:43;98034.66;;;27.12;46.45
65227;BME280;51805;49.012;12.104;2023-08-24T00:51:09;98044.91;;;27.42;45.79
65227;BME280;51805;49.012;12.104;2023-08-24T00:53:34;98039.78;;;27.27;46.12
65227;BME280;51805;49.012;12.104;2023-08-24T00:56:01;98035.84;;;27.55;45.58
65227;BME280;51805;49.012;12.104;2023-08-24T00:58:27;98026.41;;;27.03;46.83
65227;BME280;51805;49.012;12.104;2023-08-24T01:00:53;98028.66;;;27.37;45.96
65227;BME280;51805;49.012;12.104;2023-08-24T01:03:23;98022.63;;;27.26;46.29
65227;BME280;51805;49.012;12.104;2023-08-24T01:05:49;98023.41;;;27.27;46.08
65227;BME280;51805;49.012;12.104;2023-08-24T01:08:14;98023.94;;;27.51;45.61
65227;BME280;51805;49.012;12.104;2023-08-24T01:13:50;98037.91;;;27.49;45.66
65227;BME280;51805;49.012;12.104;2023-08-24T01:16:27;98038.03;;;27.66;45.03
65227;BME280;51805;49.012;12.104;2023-08-24T01:18:57;98032.25;;;27.68;45.02
65227;BME280;51805;49.012;12.104;2023-08-24T01:21:24;98035.16;;;27.49;45.50
65227;BME280;51805;49.012;12.104;2023-08-24T01:24:17;98033.53;;;27.48;45.51
65227;BME280;51805;49.012;12.104;2023-08-24T01:26:44;98023.38;;;27.62;44.89
65227;BME280;51805;49.012;12.104;2023-08-24T01:29:10;98028.50;;;27.64;45.02
65227;BME280;51805;49.012;12.104;2023-08-24T01:31:36;98016.84;;;27.50;45.28
65227;BME280;51805;49.012;12.104;2023-08-24T01:34:01;98030.97;;;26.94;46.59
65227;BME280;51805;49.012;12.104;2023-08-24T01:36:26;98030.88;;;27.21;46.18
65227;BME280;51805;49.012;12.104;2023-08-24T01:39:13;98035.78;;;27.46;45.51
65227;BME280;51805;49.012;12.104;2023-08-24T01:41:41;98030.25;;;27.60;45.08
65227;BME280;51805;49.012;12.104;2023-08-24T01:44:09;98026.59;;;27.42;45.70
65227;BME280;51805;49.012;12.104;2023-08-24T01:46:37;98027.75;;;27.50;45.20
65227;BME280;51805;49.012;12.104;2023-08-24T01:49:05;98012.78;;;26.90;46.62
65227;BME280;51805;49.012;12.104;2023-08-24T01:51:33;98011.56;;;26.96;46.46
65227;BME280;51805;49.012;12.104;2023-08-24T01:53:59;98010.59;;;26.78;46.91
65227;BME280;51805;49.012;12.104;2023-08-24T01:56:25;98012.94;;;27.07;46.40
65227;BME280;51805;49.012;12.104;2023-08-24T01:58:50;98010.06;;;27.25;45.88
65227;BME280;51805;49.012;12.104;2023-08-24T02:01:16;98007.47;;;27.20;46.13
65227;BME280;51805;49.012;12.104;2023-08-24T02:03:41;98001.28;;;27.15;45.97
65227;BME280;51805;49.012;12.104;2023-08-24T02:06:06;98003.81;;;27.25;46.04
65227;BME280;51805;49.012;12.104;2023-08-24T02:08:32;97998.31;;;27.03;46.26
65227;BME280;51805;49.012;12.104;2023-08-24T02:10:57;97998.25;;;26.81;47.17
65227;BME280;51805;49.012;12.104;2023-08-24T02:13:22;98002.03;;;26.71;47.24
65227;BME280;51805;49.012;12.104;2023-08-24T02:15:48;97996.81;;;26.97;46.88
65227;BME280;51805;49.012;12.104;2023-08-24T02:18:13;97996.41;;;26.90;46.74
65227;BME280;51805;49.012;12.104;2023-08-24T02:20:38;97994.63;;;26.72;47.30
65227;BME280;51805;49.012;12.104;2023-08-24T02:23:05;97996.28;;;26.73;47.23
65227;BME280;51805;49.012;12.104;2023-08-24T02:25:30;98002.19;;;26.75;47.09
65227;BME280;51805;49.012;12.104;2023-08-24T02:27:56;97994.50;;;26.90;47.10
65227;BME280;51805;49.012;12.104;2023-08-24T02:30:21;98002.09;;;26.80;47.22
65227;BME280;51805;49.012;12.104;2023-08-24T02:32:46;97998.69;;;26.74;47.40
65227;BME280;51805;49.012;12.104;2023-08-24T02:35:12;97991.09;;;26.85;47.03
65227;BME280;51805;49.012;12.104;2023-08-24T02:37:37;97998.97;;;27.22;46.09
65227;BME280;51805;49.012;12.104;2023-08-24T02:40:03;98002.09;;;27.29;46.02
65227;BME280;51805;49.012;12.104;2023-08-24T02:42:30;97990.63;;;27.40;45.37
65227;BME280;51805;49.012;12.104;2023-08-24T02:44:56;97989.63;;;27.36;45.40
65227;BME280;51805;49.012;12.104;2023-08-24T02:47:21;97980.88;;;27.26;45.68
65227;BME280;51805;49.012;12.104;2023-08-24T02:49:46;97990.28;;;27.20;45.84
65227;BME280;51805;49.012;12.104;2023-08-24T02:52:11;97978.16;;;27.26;45.31
65227;BME280;51805;49.012;12.104;2023-08-24T02:54:37;97991.63;;;27.09;45.90
65227;BME280;51805;49.012;12.104;2023-08-24T02:57:02;97985.19;;;27.05;46.02
65227;BME280;51805;49.012;12.104;2023-08-24T02:59:27;97984.28;;;26.96;45.86
65227;BME280;51805;49.012;12.104;2023-08-24T03:01:52;97985.69;;;26.93;46.00
65227;BME280;51805;49.012;12.104;2023-08-24T03:04:18;97981.00;;;26.72;46.29
65227;BME280;51805;49.012;12.104;2023-08-24T03:06:43;97990.47;;;26.61;46.59
65227;BME280;51805;49.012;12.104;2023-08-24T03:09:09;97992.94;;;26.35;47.32
65227;BME280;51805;49.012;12.104;2023-08-24T03:11:34;98002.41;;;26.38;47.02
65227;BME280;51805;49.012;12.104;2023-08-24T03:13:59;98000.81;;;26.09;47.95
65227;BME280;51805;49.012;12.104;2023-08-24T03:16:25;98002.41;;;26.38;47.01
65227;BME280;51805;49.012;12.104;2023-08-24T03:18:50;98005.03;;;26.70;46.20
65227;BME280;51805;49.012;12.104;2023-08-24T03:21:16;97989.59;;;26.79;46.05
65227;BME280;51805;49.012;12.104;2023-08-24T03:23:41;97997.84;;;26.47;46.62
65227;BME280;51805;49.012;12.104;2023-08-24T03:26:06;97991.78;;;26.50;46.59
65227;BME280;51805;49.012;12.104;2023-08-24T03:28:32;97999.31;;;26.71;45.88
65227;BME280;51805;49.012;12.104;2023-08-24T03:30:57;97996.81;;;26.97;45.11
65227;BME280;51805;49.012;12.104;2023-08-24T03:33:22;98001.13;;;26.76;46.02
65227;BME280;51805;49.012;12.104;2023-08-24T03:35:47;97997.38;;;26.72;46.10
65227;BME280;51805;49.012;12.104;2023-08-24T03:38:13;97991.00;;;26.76;46.00
65227;BME280;51805;49.012;12.104;2023-08-24T03:40:39;98002.47;;;26.87;45.78
65227;BME280;51805;49.012;12.104;2023-08-24T03:43:04;97995.03;;;26.79;45.42
65227;BME280;51805;49.012;12.104;2023-08-24T03:45:29;97999.00;;;26.73;45.38
65227;BME280;51805;49.012;12.104;2023-08-24T03:47:55;97993.44;;;26.64;46.04
65227;BME280;51805;49.012;12.104;2023-08-24T03:50:20;97999.09;;;26.68;45.76
65227;BME280;51805;49.012;12.104;2023-08-24T03:52:46;97995.13;;;26.47;46.01
65227;BME280;51805;49.012;12.104;2023-08-24T03:55:11;97993.75;;;26.36;46.77
65227;BME280;51805;49.012;12.104;2023-08-24T03:57:36;98002.59;;;26.55;46.09
65227;BME280;51805;49.012;12.104;2023-08-24T04:00:02;97993.44;;;26.64;45.72
65227;BME280;51805;49.012;12.104;2023-08-24T04:02:27;97996.56;;;26.71;45.57
65227;BME280;51805;49.012;12.104;2023-08-24T04:04:53;97995.66;;;26.76;45.43
65227;BME280;51805;49.012;12.104;2023-08-24T04:07:18;98001.88;;;26.90;45.24
65227;BME280;51805;49.012;12.104;2023-08-24T04:09:43;98009.66;;;26.83;45.26
65227;BME280;51805;49.012;12.104;2023-08-24T04:12:08;98005.94;;;26.79;45.31
65227;BME280;51805;49.012;12.104;2023-08-24T04:14:34;98005.72;;;26.89;45.08
65227;BME280;51805;49.012;12.104;2023-08-24T04:16:59;98012.31;;;26.74;45.45
65227;BME280;51805;49.012;12.104;2023-08-24T04:19:24;98017.06;;;26.69;45.49
65227;BME280;51805;49.012;12.104;2023-08-24T04:21:50;98012.41;;;26.56;45.79
65227;BME280;51805;49.012;12.104;2023-08-24T04:24:15;98011.81;;;26.59;45.65
65227;BME280;51805;49.012;12.104;2023-08-24T04:26:40;98017.25;;;26.59;45.81
65227;BME280;51805;49.012;12.104;2023-08-24T04:29:05;98006.75;;;26.66;45.36
65227;BME280;51805;49.012;12.104;2023-08-24T04:31:31;98008.06;;;26.68;45.51
65227;BME280;51805;49.012;12.104;2023-08-24T04:33:56;98016.44;;;26.72;45.56
65227;BME280;51805;49.012;12.104;2023-08-24T04:36:21;98000.59;;;26.74;45.19
65227;BME280;51805;49.012;12.104;2023-08-24T04:38:47;98006.56;;;26.76;45.13
65227;BME280;51805;49.012;12.104;2023-08-24T04:41:12;98014.00;;;26.84;45.31
65227;BME280;51805;49.012;12.104;2023-08-24T04:43:37;98012.50;;;26.91;44.99
65227;BME280;51805;49.012;12.104;2023-08-24T04:46:03;98009.09;;;23.57;52.52
65227;BME280;51805;49.012;12.104;2023-08-24T04:48:28;98004.28;;;22.66;54.88
65227;BME280;51805;49.012;12.104;2023-08-24T04:50:53;98010.16;;;22.78;55.09
65227;BME280;51805;49.012;12.104;2023-08-24T04:53:19;98014.47;;;22.79;55.14
65227;BME280;51805;49.012;12.104;2023-08-24T04:55:45;98014.00;;;22.72;55.26
65227;BME280;51805;49.012;12.104;2023-08-24T04:58:12;98009.59;;;22.86;54.80
65227;BME280;51805;49.012;12.104;2023-08-24T05:00:37;98010.88;;;22.94;54.54
65227;BME280;51805;49.012;12.104;2023-08-24T05:03:04;98012.06;;;22.04;57.09
65227;BME280;51805;49.012;12.104;2023-08-24T05:05:30;98003.38;;;22.12;56.79
65227;BME280;51805;49.012;12.104;2023-08-24T05:07:56;97998.34;;;22.59;55.39
65227;BME280;51805;49.012;12.104;2023-08-24T05:10:21;97991.72;;;24.15;51.65
65227;BME280;51805;49.012;12.104;2023-08-24T05:12:46;98007.91;;;24.91;49.32
65227;BME280;51805;49.012;12.104;2023-08-24T05:15:12;98002.97;;;24.03;51.39
65227;BME280;51805;49.012;12.104;2023-08-24T05:17:37;97999.63;;;24.35;51.03
65227;BME280;51805;49.012;12.104;2023-08-24T05:20:03;98004.94;;;24.45;50.38
65227;BME280;51805;49.012;12.104;2023-08-24T05:22:28;97996.88;;;24.16;50.78
65227;BME280;51805;49.012;12.104;2023-08-24T05:24:53;98004.72;;;24.60;49.58
65227;BME280;51805;49.012;12.104;2023-08-24T05:27:19;98003.31;;;24.44;49.64
65227;BME280;51805;49.012;12.104;2023-08-24T05:29:44;98007.22;;;24.80;49.20
65227;BME280;51805;49.012;12.104;2023-08-24T05:32:09;98003.47;;;24.76;49.52
65227;BME280;51805;49.012;12.104;2023-08-24T05:34:34;98000.50;;;24.30;49.98
65227;BME280;51805;49.012;12.104;2023-08-24T05:37:02;98008.81;;;24.15;50.60
65227;BME280;51805;49.012;12.104;2023-08-24T05:39:27;98000.25;;;23.75;51.85
65227;BME280;51805;49.012;12.104;2023-08-24T05:41:53;98002.16;;;24.03;51.08
65227;BME280;51805;49.012;12.104;2023-08-24T05:44:19;97998.47;;;24.41;50.09
65227;BME280;51805;49.012;12.104;2023-08-24T05:46:46;97991.72;;;24.15;50.63
65227;BME280;51805;49.012;12.104;2023-08-24T05:49:11;97980.78;;;24.20;50.42
65227;BME280;51805;49.012;12.104;2023-08-24T05:51:36;97998.81;;;23.82;51.49
65227;BME280;51805;49.012;12.104;2023-08-24T05:54:02;97998.69;;;24.44;50.19
65227;BME280;51805;49.012;12.104;2023-08-24T05:56:27;98012.78;;;24.23;50.45
65227;BME280;51805;49.012;12.104;2023-08-24T05:58:54;98017.19;;;24.19;50.65
65227;BME280;51805;49.012;12.104;2023-08-24T06:01:19;98016.28;;;24.28;50.37
65227;BME280;51805;49.012;12.104;2023-08-24T06:03:45;98029.47;;;23.83;51.51
65227;BME280;51805;49.012;12.104;2023-08-24T06:06:10;98027.56;;;23.83;51.64
65227;BME280;51805;49.012;12.104;2023-08-24T06:08:35;98010.72;;;24.15;50.52
65227;BME280;51805;49.012;12.104;2023-08-24T06:11:01;98011.56;;;23.82;51.63
65227;BME280;51805;49.012;12.104;2023-08-24T06:13:26;98013.53;;;24.05;50.98
65227;BME280;51805;49.012;12.104;2023-08-24T06:15:52;98009.28;;;24.22;50.57
65227;BME280;51805;49.012;12.104;2023-08-24T06:18:18;98014.72;;;24.64;49.44
65227;BME280;51805;49.012;12.104;2023-08-24T06:20:43;98015.44;;;24.28;50.59
65227;BME280;51805;49.012;12.104;2023-08-24T06:23:08;98016.84;;;24.49;50.21
65227;BME280;51805;49.012;12.104;2023-08-24T06:25:35;98005.22;;;24.67;49.58
65227;BME280;51805;49.012;12.104;2023-08-24T06:28:00;98017.00;;;24.81;48.90
65227;BME280;51805;49.012;12.104;2023-08-24T06:30:26;98011.63;;;25.13;48.73
65227;BME280;51805;49.012;12.104;2023-08-24T06:32:52;98012.47;;;25.14;48.02
65227;BME280;51805;49.012;12.104;2023-08-24T06:35:17;98014.81;;;24.36;49.67
65227;BME280;51805;49.012;12.104;2023-08-24T06:37:43;98032.44;;;24.38;50.09
65227;BME280;51805;49.012;12.104;2023-08-24T06:40:08;98020.66;;;24.72;49.26
65227;BME280;51805;49.012;12.104;2023-08-24T06:42:34;98019.44;;;24.59;49.69
65227;BME280;51805;49.012;12.104;2023-08-24T06:44:59;98010.88;;;24.23;50.30
65227;BME280;51805;49.012;12.104;2023-08-24T06:47:24;98026.28;;;23.47;52.59
65227;BME280;51805;49.012;12.104;2023-08-24T06:49:50;98028.56;;;23.64;52.51
65227;BME280;51805;49.012;12.104;2023-08-24T06:52:16;98024.16;;;23.39;53.59
65227;BME280;51805;49.012;12.104;2023-08-24T06:54:41;98004.78;;;24.13;51.09
65227;BME280;51805;49.012;12.104;2023-08-24T06:57:06;98025.38;;;24.14;51.23
65227;BME280;51805;49.012;12.104;2023-08-24T06:59:32;98027.13;;;24.05;51.67
65227;BME280;51805;49.012;12.104;2023-08-24T07:01:57;98017.22;;;24.66;51.05
65227;BME280;51805;49.012;12.104;2023-08-24T07:04:22;98033.72;;;24.46;51.21
65227;BME280;51805;49.012;12.104;2023-08-24T07:06:48;98028.06;;;24.42;51.82
65227;BME280;51805;49.012;12.104;2023-08-24T07:09:13;98015.44;;;24.28;52.00
65227;BME280;51805;49.012;12.104;2023-08-24T07:11:38;98009.16;;;25.17;49.63
65227;BME280;51805;49.012;12.104;2023-08-24T07:14:03;98008.50;;;24.88;49.63
65227;BME280;51805;49.012;12.104;2023-08-24T07:16:29;98002.97;;;25.11;49.64
65227;BME280;51805;49.012;12.104;2023-08-24T07:18:54;98000.41;;;25.38;48.91
65227;BME280;51805;49.012;12.104;2023-08-24T07:21:19;97996.03;;;25.37;48.66
65227;BME280;51805;49.012;12.104;2023-08-24T07:23:45;97993.41;;;25.32;48.78
65227;BME280;51805;49.012;12.104;2023-08-24T07:26:10;97991.72;;;24.99;49.37
65227;BME280;51805;49.012;12.104;2023-08-24T07:28:35;97986.00;;;24.16;51.21
65227;BME280;51805;49.012;12.104;2023-08-24T07:31:08;97982.97;;;25.21;48.85
65227;BME280;51805;49.012;12.104;2023-08-24T07:33:33;97979.31;;;25.62;47.37
65227;BME280;51805;49.012;12.104;2023-08-24T07:35:59;97956.94;;;25.79;47.17
65227;BME280;51805;49.012;12.104;2023-08-24T07:38:24;97959.47;;;25.75;47.18
65227;BME280;51805;49.012;12.104;2023-08-24T07:40:49;97957.31;;;26.04;46.90
65227;BME280;51805;49.012;12.104;2023-08-24T07:43:15;97943.47;;;26.14;46.80
65227;BME280;51805;49.012;12.104;2023-08-24T07:45:40;97935.91;;;26.25;46.39
65227;BME280;51805;49.012;12.104;2023-08-24T07:48:05;97928.25;;;26.27;46.00
65227;BME280;51805;49.012;12.104;2023-08-24T07:50:30;97913.72;;;26.32;45.99
65227;BME280;51805;49.012;12.104;2023-08-24T07:52:56;97910.56;;;26.38;46.07
65227;BME280;51805;49.012;12.104;2023-08-24T07:55:21;97920.56;;;26.43;45.89
65227;BME280;51805;49.012;12.104;2023-08-24T07:57:46;97921.97;;;26.40;45.79
65227;BME280;51805;49.012;12.104;2023-08-24T08:00:12;97918.50;;;26.48;45.93
65227;BME280;51805;49.012;12.104;2023-08-24T08:02:38;97909.03;;;26.46;45.91
65227;BME280;51805;49.012;12.104;2023-08-24T08:05:03;97915.47;;;26.50;45.87
65227;BME280;51805;49.012;12.104;2023-08-24T08:07:29;97917.13;;;26.51;46.12
65227;BME280;51805;49.012;12.104;2023-08-24T08:09:54;97928.91;;;26.60;45.99
65227;BME280;51805;49.012;12.104;2023-08-24T08:12:20;97942.94;;;26.53;46.28
65227;BME280;51805;49.012;12.104;2023-08-24T08:14:45;97944.94;;;26.61;45.93
65227;BME280;51805;49.012;12.104;2023-08-24T08:17:10;97941.84;;;26.68;45.84
65227;BME280;51805;49.012;12.104;2023-08-24T08:19:35;97944.78;;;26.71;45.87
65227;BME280;51805;49.012;12.104;2023-08-24T08:22:01;97932.25;;;26.57;46.11
65227;BME280;51805;49.012;12.104;2023-08-24T08:24:26;97953.94;;;26.62;45.97
65227;BME280;51805;49.012;12.104;2023-08-24T08:26:52;97950.41;;;26.61;46.16
65227;BME280;51805;49.012;12.104;2023-08-24T08:29:17;97950.19;;;26.58;46.27
65227;BME280;51805;49.012;12.104;2023-08-24T08:31:42;97935.06;;;26.52;45.97
65227;BME280;51805;49.012;12.104;2023-08-24T08:34:07;97960.72;;;26.64;45.88
65227;BME280;51805;49.012;12.104;2023-08-24T08:36:33;97962.00;;;26.80;45.60
65227;BME280;51805;49.012;12.104;2023-08-24T08:38:58;97966.16;;;26.78;45.64
65227;BME280;51805;49.012;12.104;2023-08-24T08:41:27;97975.84;;;26.70;45.93
65227;BME280;51805;49.012;12.104;2023-08-24T08:43:52;97977.28;;;26.68;46.26
65227;BME280;51805;49.012;12.104;2023-08-24T08:46:18;97973.84;;;26.76;45.87
65227;BME280;51805;49.012;12.104;2023-08-24T08:48:45;97980.63;;;26.65;46.02
65227;BME280;51805;49.012;12.104;2023-08-24T08:51:13;97977.09;;;26.10;46.22
65227;BME280;51805;49.012;12.104;2023-08-24T08:53:38;97974.47;;;26.32;46.28
65227;BME280;51805;49.012;12.104;2023-08-24T08:56:04;97962.44;;;26.74;45.91
65227;BME280;51805;49.012;12.104;2023-08-24T08:58:31;97973.38;;;26.96;45.52
65227;BME280;51805;49.012;12.104;2023-08-24T09:00:57;97961.47;;;26.92;45.67
65227;BME280;51805;49.012;12.104;2023-08-24T09:03:22;97965.31;;;26.91;44.95
65227;BME280;51805;49.012;12.104;2023-08-24T09:05:47;97957.28;;;26.72;45.11
65227;BME280;51805;49.012;12.104;2023-08-24T09:08:14;97970.53;;;27.01;45.36
65227;BME280;51805;49.012;12.104;2023-08-24T09:10:41;97959.06;;;27.12;44.89
65227;BME280;51805;49.012;12.104;2023-08-24T09:13:06;97964.72;;;27.16;44.83
65227;BME280;51805;49.012;12.104;2023-08-24T09:15:35;97961.84;;;27.21;44.96
65227;BME280;51805;49.012;12.104;2023-08-24T09:18:00;97956.78;;;27.06;45.04
65227;BME280;51805;49.012;12.104;2023-08-24T09:20:27;97958.06;;;26.86;45.37
65227;BME280;51805;49.012;12.104;2023-08-24T09:22:53;97950.28;;;26.80;45.04
65227;BME280;51805;49.012;12.104;2023-08-24T09:25:18;97948.84;;;26.96;45.09
65227;BME280;51805;49.012;12.104;2023-08-24T09:27:43;97947.31;;;27.25;44.74
65227;BME280;51805;49.012;12.104;2023-08-24T09:30:09;97953.81;;;27.38;44.49
65227;BME280;51805;49.012;12.104;2023-08-24T09:32:34;97954.84;;;27.42;44.44
65227;BME280;51805;49.012;12.104;2023-08-24T09:35:04;97952.41;;;27.40;44.41
65227;BME280;51805;49.012;12.104;2023-08-24T09:37:34;97943.56;;;27.21;44.51
65227;BME280;51805;49.012;12.104;2023-08-24T09:40:05;97922.69;;;27.17;44.74
65227;BME280;51805;49.012;12.104;2023-08-24T09:42:31;97925.44;;;27.39;44.29
65227;BME280;51805;49.012;12.104;2023-08-24T09:45:03;97929.50;;;27.50;44.30
65227;BME280;51805;49.012;12.104;2023-08-24T09:47:28;97925.13;;;27.40;43.53
65227;BME280;51805;49.012;12.104;2023-08-24T09:49:53;97906.38;;;27.47;44.24
65227;BME280;51805;49.012;12.104;2023-08-24T09:52:19;97898.56;;;27.54;43.68
65227;BME280;51805;49.012;12.104;2023-08-24T09:54:45;97881.69;;;27.61;42.39
65227;BME280;51805;49.012;12.104;2023-08-24T09:57:11;97871.94;;;27.68;43.15
65227;BME280;51805;49.012;12.104;2023-08-24T09:59:39;97874.00;;;27.63;42.43
65227;BME280;51805;49.012;12.104;2023-08-24T10:02:15;97867.97;;;27.75;41.51
65227;BME280;51805;49.012;12.104;2023-08-24T10:04:42;97880.00;;;27.73;41.89
65227;BME280;51805;49.012;12.104;2023-08-24T10:07:10;97866.84;;;27.76;41.49
65227;BME280;51805;49.012;12.104;2023-08-24T10:10:02;97857.03;;;27.75;41.44
65227;BME280;51805;49.012;12.104;2023-08-24T10:12:28;97870.84;;;27.78;41.74
65227;BME280;51805;49.012;12.104;2023-08-24T10:15:02;97865.88;;;27.80;41.74
65227;BME280;51805;49.012;12.104;2023-08-24T10:17:28;97854.13;;;27.71;41.24
65227;BME280;51805;49.012;12.104;2023-08-24T10:19:55;97853.81;;;27.81;41.21
65227;BME280;51805;49.012;12.104;2023-08-24T10:22:23;97853.19;;;27.84;41.52
65227;BME280;51805;49.012;12.104;2023-08-24T10:24:49;97844.16;;;27.75;41.97
65227;BME280;51805;49.012;12.104;2023-08-24T10:27:16;97837.31;;;27.86;41.30
65227;BME280;51805;49.012;12.104;2023-08-24T10:29:42;97823.97;;;27.85;41.59
65227;BME280;51805;49.012;12.104;2023-08-24T10:32:08;97831.84;;;27.78;41.81
65227;BME280;51805;49.012;12.104;2023-08-24T10:34:34;97818.00;;;27.74;41.62
65227;BME280;51805;49.012;12.104;2023-08-24T10:37:09;97828.03;;;27.96;40.78
65227;BME280;51805;49.012;12.104;2023-08-24T10:39:35;97816.75;;;27.89;41.63
65227;BME280;51805;49.012;12.104;2023-08-24T10:42:01;97826.53;;;27.81;41.92
65227;BME280;51805;49.012;12.104;2023-08-24T10:44:36;97829.13;;;27.86;41.84
65227;BME280;51805;49.012;12.104;2023-08-24T10:49:33;97809.88;;;27.91;41.70
65227;BME280;51805;49.012;12.104;2023-08-24T10:52:16;97819.34;;;27.94;41.95
65227;BME280;51805;49.012;12.104;2023-08-24T10:55:05;97817.13;;;27.96;41.95
65227;BME280;51805;49.012;12.104;2023-08-24T10:57:58;97819.72;;;28.01;41.75
65227;BME280;51805;49.012;12.104;2023-08-24T11:00:26;97808.88;;;27.87;42.30
65227;BME280;51805;49.012;12.104;2023-08-24T11:02:52;97812.47;;;27.96;41.83
65227;BME280;51805;49.012;12.104;2023-08-24T11:05:26;97811.66;;;28.04;42.03
65227;BME280;51805;49.012;12.104;2023-08-24T11:08:02;97802.81;;;27.99;42.28
65227;BME280;51805;49.012;12.104;2023-08-24T11:10:31;97801.09;;;28.11;41.66
65227;BME280;51805;49.012;12.104;2023-08-24T11:15:31;97794.63;;;28.07;42.02
65227;BME280;51805;49.012;12.104;2023-08-24T11:23:16;97773.25;;;28.09;41.88
65227;BME280;51805;49.012;12.104;2023-08-24T11:25:41;97773.91;;;28.06;41.95
65227;BME280;51805;49.012;12.104;2023-08-24T11:28:07;97759.59;;;28.09;41.73
65227;BME280;51805;49.012;12.104;2023-08-24T11:30:33;97753.66;;;28.07;41.78
65227;BME280;51805;49.012;12.104;2023-08-24T11:32:58;97741.13;;;28.06;41.64
65227;BME280;51805;49.012;12.104;2023-08-24T11:35:24;97745.94;;;28.26;41.07
65227;BME280;51805;49.012;12.104;2023-08-24T11:37:53;97753.19;;;28.31;41.00
65227;BME280;51805;49.012;12.104;2023-08-24T11:40:18;97746.13;;;28.47;40.36
65227;BME280;51805;49.012;12.104;2023-08-24T11:42:44;97741.13;;;28.57;40.26
65227;BME280;51805;49.012;12.104;2023-08-24T11:45:12;97735.31;;;28.33;41.05
65227;BME280;51805;49.012;12.104;2023-08-24T11:47:38;97732.78;;;28.28;41.29
65227;BME280;51805;49.012;12.104;2023-08-24T11:50:04;97723.44;;;28.29;41.26
65227;BME280;51805;49.012;12.104;2023-08-24T11:52:29;97731.34;;;28.48;40.35
65227;BME280;51805;49.012;12.104;2023-08-24T11:54:58;97729.72;;;28.64;40.30
65227;BME280;51805;49.012;12.104;2023-08-24T11:57:24;97727.63;;;28.52;40.81
65227;BME280;51805;49.012;12.104;2023-08-24T11:59:49;97733.41;;;28.59;40.62
65227;BME280;51805;49.012;12.104;2023-08-24T12:02:14;97736.44;;;28.66;40.49
65227;BME280;51805;49.012;12.104;2023-08-24T12:04:40;97732.25;;;28.77;40.39
65227;BME280;51805;49.012;12.104;2023-08-24T12:07:12;97724.34;;;28.84;40.13
65227;BME280;51805;49.012;12.104;2023-08-24T12:09:39;97740.91;;;28.88;39.77
65227;BME280;51805;49.012;12.104;2023-08-24T12:12:04;97728.50;;;28.90;39.54
65227;BME280;51805;49.012;12.104;2023-08-24T12:14:40;97719.41;;;28.69;40.13
65227;BME280;51805;49.012;12.104;2023-08-24T12:17:11;97727.41;;;28.83;39.90
65227;BME280;51805;49.012;12.104;2023-08-24T12:19:41;97720.66;;;28.80;39.68
65227;BME280;51805;49.012;12.104;2023-08-24T12:22:06;97715.66;;;28.82;39.30
65227;BME280;51805;49.012;12.104;2023-08-24T12:24:31;97719.84;;;28.88;39.53
65227;BME280;51805;49.012;12.104;2023-08-24T12:26:57;97717.09;;;28.88;39.33
65227;BME280;51805;49.012;12.104;2023-08-24T12:29:22;97705.00;;;28.98;39.16
65227;BME280;51805;49.012;12.104;2023-08-24T12:31:48;97706.44;;;29.04;38.71
65227;BME280;51805;49.012;12.104;2023-08-24T12:34:14;97692.44;;;29.05;38.49
65227;BME280;51805;49.012;12.104;2023-08-24T12:36:41;97705.75;;;29.15;38.38
65227;BME280;51805;49.012;12.104;2023-08-24T12:39:07;97703.00;;;29.15;38.47
65227;BME280;51805;49.012;12.104;2023-08-24T12:41:32;97707.97;;;29.22;38.25
65227;BME280;51805;49.012;12.104;2023-08-24T12:43:58;97696.72;;;29.15;38.48
65227;BME280;51805;49.012;12.104;2023-08-24T12:46:23;97694.47;;;29.17;38.92
65227;BME280;51805;49.012;12.104;2023-08-24T12:48:50;97682.44;;;29.09;38.84
65227;BME280;51805;49.012;12.104;2023-08-24T12:51:15;97682.09;;;29.19;38.87
65227;BME280;51805;49.012;12.104;2023-08-24T12:53:40;97678.91;;;29.00;39.53
65227;BME280;51805;49.012;12.104;2023-08-24T12:56:05;97679.91;;;28.96;39.71
65227;BME280;51805;49.012;12.104;2023-08-24T12:58:31;97678.22;;;29.12;38.92